Time;durP1;ratioP1;P1;durP2;ratioP2;P2;SDS_P1;SDS_P2;PMS_P1;PMS_P2;Temp;Humidity;BMP_temperature;BMP_pressure;BME280_temperature;BME280_humidity;BME280_pressure;Samples;Min_cycle;Max_cycle;Signal;HPM_P1;HPM_P2
2022/05/29 00:01:37;;;;;;;4.92;3.98;;;;;;;;;;1889443;76;21093;-59
2022/05/29 00:04:06;;;;;;;4.92;3.90;;;;;;;;;;1889362;76;21038;-59
2022/05/29 00:06:36;;;;;;;4.28;3.80;;;;;;;;;;1889426;76;21042;-59
2022/05/29 00:09:04;;;;;;;3.92;3.47;;;;;;;;;;1889489;76;21100;-59
2022/05/29 00:11:34;;;;;;;6.03;3.95;;;;;;;;;;1889417;76;21014;-59
2022/05/29 00:14:02;;;;;;;4.97;3.58;;;;;;;;;;1889362;76;21029;-59
2022/05/29 00:16:31;;;;;;;4.03;3.52;;;;;;;;;;1889413;76;21119;-59
2022/05/29 00:19:00;;;;;;;6.00;3.77;;;;;;;;;;1889380;76;21046;-59
2022/05/29 00:21:30;;;;;;;6.12;3.55;;;;;;;;;;1889421;76;21045;-59
2022/05/29 00:23:58;;;;;;;6.15;3.67;;;;;;;;;;1889488;76;21010;-59
2022/05/29 00:26:27;;;;;;;4.00;3.12;;;;;;;;;;1889459;76;21146;-59
2022/05/29 00:28:57;;;;;;;5.40;3.80;;;;;;;;;;1889386;76;21034;-60
2022/05/29 00:31:26;;;;;;;3.75;3.37;;;;;;;;;;1889381;76;21116;-59
2022/05/29 00:33:54;;;;;;;5.87;3.70;;;;;;;;;;1889648;76;21045;-59
2022/05/29 00:36:23;;;;;;;5.30;3.70;;;;;;;;;;1889451;76;21045;-58
2022/05/29 00:38:52;;;;;;;5.45;3.27;;;;;;;;;;1889384;76;21551;-59
2022/05/29 00:41:25;;;;;;;3.55;3.25;;;;;;;;;;1889427;76;21120;-59
2022/05/29 00:44:07;;;;;;;4.83;3.55;;;;;;;;;;1889386;76;21006;-59
2022/05/29 00:46:36;;;;;;;5.22;3.22;;;;;;;;;;1889510;76;21030;-59
2022/05/29 00:49:08;;;;;;;4.30;3.70;;;;;;;;;;1889365;76;21034;-59
2022/05/29 00:51:40;;;;;;;4.70;3.70;;;;;;;;;;1889503;76;21027;-59
2022/05/29 00:54:09;;;;;;;5.67;3.42;;;;;;;;;;1888735;76;21030;-60
2022/05/29 00:56:38;;;;;;;4.95;3.85;;;;;;;;;;1889388;76;21167;-60
2022/05/29 00:59:08;;;;;;;4.20;3.70;;;;;;;;;;1889445;76;21146;-59
2022/05/29 01:01:37;;;;;;;5.03;3.58;;;;;;;;;;1889418;76;21077;-59
2022/05/29 01:04:07;;;;;;;9.73;4.17;;;;;;;;;;1889330;76;21058;-59
2022/05/29 01:06:36;;;;;;;4.87;3.65;;;;;;;;;;1889416;76;21038;-60
2022/05/29 01:09:05;;;;;;;4.62;3.90;;;;;;;;;;1889322;76;21108;-60
2022/05/29 01:11:52;;;;;;;4.58;4.05;;;;;;;;;;1889368;76;21034;-60
2022/05/29 01:14:23;;;;;;;8.88;4.30;;;;;;;;;;1889309;76;21119;-59
2022/05/29 01:17:05;;;;;;;6.20;3.80;;;;;;;;;;1889474;76;21026;-59
2022/05/29 01:19:38;;;;;;;4.70;3.22;;;;;;;;;;1889333;76;21045;-59
2022/05/29 01:22:08;;;;;;;5.40;3.80;;;;;;;;;;1889267;75;21030;-59
2022/05/29 01:24:47;;;;;;;5.53;3.58;;;;;;;;;;1889208;76;21026;-59
2022/05/29 01:27:20;;;;;;;6.55;3.70;;;;;;;;;;1889123;76;21127;-60
2022/05/29 01:29:55;;;;;;;6.03;4.00;;;;;;;;;;1889437;76;21030;-59
2022/05/29 01:32:34;;;;;;;4.28;3.62;;;;;;;;;;1889390;76;21006;-60
2022/05/29 01:35:17;;;;;;;6.50;3.98;;;;;;;;;;1889054;76;21073;-60
2022/05/29 01:37:53;;;;;;;4.90;3.72;;;;;;;;;;1856494;76;21054;-60
2022/05/29 01:40:23;;;;;;;6.53;3.12;;;;;;;;;;1889436;76;21100;-59
2022/05/29 01:43:02;;;;;;;4.00;3.60;;;;;;;;;;1889028;76;21191;-59
2022/05/29 01:45:53;;;;;;;4.25;3.85;;;;;;;;;;1889252;76;21038;-60
2022/05/29 01:48:07;;;;;;;4.42;3.98;;;;;;;;;;1885405;76;21492;-59
2022/05/29 01:50:36;;;;;;;6.08;3.80;;;;;;;;;;1889099;76;21022;-59
2022/05/29 01:53:15;;;;;;;5.60;3.98;;;;;;;;;;1889547;76;21029;-59
2022/05/29 01:55:45;;;;;;;7.55;4.17;;;;;;;;;;1889436;76;21021;-59
2022/05/29 01:58:15;;;;;;;6.95;4.15;;;;;;;;;;1889416;76;21104;-60
2022/05/29 02:00:45;;;;;;;5.70;3.67;;;;;;;;;;1889450;76;21030;-60
2022/05/29 02:03:18;;;;;;;5.75;4.12;;;;;;;;;;1889302;76;21042;-60
2022/05/29 02:05:48;;;;;;;5.65;3.87;;;;;;;;;;1889386;76;21534;-60
2022/05/29 02:08:18;;;;;;;6.37;4.00;;;;;;;;;;1889472;76;21096;-60
2022/05/29 02:10:53;;;;;;;4.10;3.70;;;;;;;;;;1888606;76;21117;-60
2022/05/29 02:13:23;;;;;;;5.22;3.62;;;;;;;;;;1889199;76;21061;-60
2022/05/29 02:15:59;;;;;;;6.25;3.62;;;;;;;;;;1889448;76;21108;-60
2022/05/29 02:18:29;;;;;;;7.22;4.15;;;;;;;;;;1889456;76;21049;-60
2022/05/29 02:20:59;;;;;;;4.53;3.67;;;;;;;;;;1889606;76;21146;-60
2022/05/29 02:23:28;;;;;;;4.25;3.67;;;;;;;;;;1889566;76;21029;-59
2022/05/29 02:25:57;;;;;;;3.30;3.00;;;;;;;;;;1889287;76;21034;-60
2022/05/29 02:28:27;;;;;;;4.45;2.92;;;;;;;;;;1889471;76;21045;-60
2022/05/29 02:31:00;;;;;;;7.78;3.85;;;;;;;;;;1889531;76;21029;-60
2022/05/29 02:33:36;;;;;;;4.10;3.58;;;;;;;;;;1889510;76;21026;-60
2022/05/29 02:36:29;;;;;;;5.03;4.15;;;;;;;;;;1881600;76;21214;-59
2022/05/29 02:39:10;;;;;;;4.87;3.55;;;;;;;;;;1887549;75;21049;-60
2022/05/29 02:41:52;;;;;;;8.98;3.47;;;;;;;;;;1889569;76;21029;-60
2022/05/29 02:44:31;;;;;;;10.08;3.60;;;;;;;;;;1889542;76;21158;-59
2022/05/29 02:47:04;;;;;;;4.50;3.60;;;;;;;;;;1889631;76;21025;-59
2022/05/29 02:49:37;;;;;;;4.53;4.12;;;;;;;;;;1889410;75;21029;-60
2022/05/29 02:52:08;;;;;;;5.40;4.03;;;;;;;;;;1889684;76;21002;-60
2022/05/29 02:54:37;;;;;;;4.22;3.83;;;;;;;;;;1889531;76;21081;-59
2022/05/29 02:57:06;;;;;;;5.30;3.90;;;;;;;;;;1889547;76;21123;-60
2022/05/29 02:59:46;;;;;;;6.50;4.00;;;;;;;;;;1889410;76;21103;-60
2022/05/29 03:02:16;;;;;;;6.75;3.72;;;;;;;;;;1889410;76;21048;-60
2022/05/29 03:04:46;;;;;;;5.55;4.25;;;;;;;;;;1889483;76;21092;-60
2022/05/29 03:07:33;;;;;;;5.40;3.60;;;;;;;;;;1889490;76;21066;-60
2022/05/29 03:10:18;;;;;;;7.03;4.17;;;;;;;;;;1889583;76;21148;-60
2022/05/29 03:12:54;;;;;;;8.23;4.55;;;;;;;;;;1889758;76;21099;-60
2022/05/29 03:15:27;;;;;;;4.70;4.12;;;;;;;;;;1889306;76;21124;-60
2022/05/29 03:17:57;;;;;;;7.53;4.25;;;;;;;;;;1889496;76;21025;-60
2022/05/29 03:20:40;;;;;;;6.87;4.40;;;;;;;;;;1889580;76;21264;-60
2022/05/29 03:23:22;;;;;;;6.75;4.45;;;;;;;;;;1856734;76;21049;-60
2022/05/29 03:25:55;;;;;;;8.43;4.12;;;;;;;;;;1889629;76;21022;-60
2022/05/29 03:28:25;;;;;;;13.62;4.62;;;;;;;;;;1889369;76;21006;-60
2022/05/29 03:30:54;;;;;;;9.38;4.25;;;;;;;;;;1889377;76;21100;-60
2022/05/29 03:33:23;;;;;;;9.50;4.45;;;;;;;;;;1889507;76;21472;-60
2022/05/29 03:35:56;;;;;;;9.38;4.87;;;;;;;;;;1889435;76;21045;-60
2022/05/29 03:38:25;;;;;;;5.80;4.28;;;;;;;;;;1886295;76;21126;-60
2022/05/29 03:40:53;;;;;;;8.65;5.00;;;;;;;;;;1879916;76;21105;-60
2022/05/29 03:43:22;;;;;;;7.20;4.75;;;;;;;;;;1879848;76;21140;-60
2022/05/29 03:45:51;;;;;;;8.90;5.15;;;;;;;;;;1879969;76;21042;-60
2022/05/29 03:48:20;;;;;;;13.75;8.75;;;;;;;;;;1879972;76;21124;-60
2022/05/29 03:50:48;;;;;;;19.27;9.85;;;;;;;;;;1879868;76;21081;-61
2022/05/29 03:53:17;;;;;;;24.23;11.50;;;;;;;;;;1879835;76;21042;-61
2022/05/29 03:55:46;;;;;;;28.80;14.03;;;;;;;;;;1879850;76;21050;-60
2022/05/29 03:58:15;;;;;;;41.98;19.80;;;;;;;;;;1879874;76;21112;-60
2022/05/29 04:00:44;;;;;;;33.53;15.68;;;;;;;;;;1879889;76;21042;-60
2022/05/29 04:03:12;;;;;;;33.33;18.42;;;;;;;;;;1879816;76;21026;-61
2022/05/29 04:05:42;;;;;;;38.00;18.48;;;;;;;;;;1879855;76;21026;-60
2022/05/29 04:13:45;;;;;;;30.15;15.65;;;;;;;;;;1879853;76;21050;-60
2022/05/29 04:16:14;;;;;;;24.40;12.70;;;;;;;;;;1879965;76;21149;-60
2022/05/29 04:18:43;;;;;;;27.58;12.73;;;;;;;;;;1879789;76;21116;-60
2022/05/29 04:21:12;;;;;;;21.17;9.65;;;;;;;;;;1879920;76;21045;-60
2022/05/29 04:23:41;;;;;;;14.85;8.88;;;;;;;;;;1879923;76;21042;-60
2022/05/29 04:26:11;;;;;;;12.88;6.87;;;;;;;;;;1880030;76;21042;-61
2022/05/29 04:28:39;;;;;;;15.28;8.58;;;;;;;;;;1879840;76;21046;-60
2022/05/29 04:31:08;;;;;;;11.30;6.65;;;;;;;;;;1879880;76;21112;-60
2022/05/29 04:33:37;;;;;;;14.65;7.85;;;;;;;;;;1879852;76;21022;-60
2022/05/29 04:36:06;;;;;;;12.90;6.70;;;;;;;;;;1879835;76;21022;-60
2022/05/29 04:38:35;;;;;;;13.05;6.83;;;;;;;;;;1879779;76;21136;-60
2022/05/29 04:41:08;;;;;;;16.27;7.17;;;;;;;;;;1879892;76;21054;-60
2022/05/29 04:43:36;;;;;;;13.65;7.30;;;;;;;;;;1879858;76;21112;-60
2022/05/29 04:46:05;;;;;;;11.40;6.72;;;;;;;;;;1879803;76;21042;-60
2022/05/29 04:48:34;;;;;;;15.78;7.85;;;;;;;;;;1879833;76;21120;-60
2022/05/29 04:51:04;;;;;;;15.00;7.15;;;;;;;;;;1879894;76;21042;-60
2022/05/29 04:53:32;;;;;;;14.13;8.10;;;;;;;;;;1879836;76;21042;-60
2022/05/29 04:56:01;;;;;;;18.37;7.47;;;;;;;;;;1879878;76;21116;-60
2022/05/29 04:58:31;;;;;;;15.45;7.58;;;;;;;;;;1879906;76;21042;-60
2022/05/29 05:01:01;;;;;;;15.50;7.87;;;;;;;;;;1879911;76;21154;-60
2022/05/29 05:03:30;;;;;;;14.58;6.53;;;;;;;;;;1879912;76;21081;-60
2022/05/29 05:05:59;;;;;;;18.37;7.37;;;;;;;;;;1879870;76;21057;-60
2022/05/29 05:08:28;;;;;;;13.40;7.15;;;;;;;;;;1879752;76;21099;-60
2022/05/29 05:10:57;;;;;;;12.25;6.85;;;;;;;;;;1879774;76;21010;-60
2022/05/29 05:13:26;;;;;;;12.53;7.95;;;;;;;;;;1879741;76;21046;-60
2022/05/29 05:16:01;;;;;;;15.93;7.70;;;;;;;;;;1879780;76;21112;-60
2022/05/29 05:18:29;;;;;;;15.53;7.35;;;;;;;;;;1879699;76;21073;-60
2022/05/29 05:20:59;;;;;;;16.40;7.45;;;;;;;;;;1879713;76;21116;-60
2022/05/29 05:23:28;;;;;;;21.50;11.35;;;;;;;;;;1879849;76;21128;-60
2022/05/29 05:25:56;;;;;;;24.47;9.55;;;;;;;;;;1879712;76;21116;-60
2022/05/29 05:28:25;;;;;;;16.02;8.73;;;;;;;;;;1879743;76;21108;-60
2022/05/29 05:30:54;;;;;;;18.17;8.33;;;;;;;;;;1879674;76;21034;-60
2022/05/29 05:33:22;;;;;;;20.27;9.23;;;;;;;;;;1879646;76;21010;-60
2022/05/29 05:35:51;;;;;;;17.10;8.88;;;;;;;;;;1879715;76;21026;-60
2022/05/29 05:38:20;;;;;;;20.88;8.43;;;;;;;;;;1879802;76;21159;-60
2022/05/29 05:40:48;;;;;;;8.03;6.08;;;;;;;;;;1888683;76;21053;-60
2022/05/29 05:43:19;;;;;;;13.53;7.28;;;;;;;;;;1889253;76;21058;-60
2022/05/29 05:45:48;;;;;;;9.28;5.97;;;;;;;;;;1889217;76;21135;-60
2022/05/29 05:48:17;;;;;;;10.45;6.03;;;;;;;;;;1889341;76;21002;-60
2022/05/29 05:50:46;;;;;;;14.03;7.20;;;;;;;;;;1889411;76;21038;-60
2022/05/29 05:53:15;;;;;;;8.83;5.53;;;;;;;;;;1889398;76;21107;-60
2022/05/29 05:55:44;;;;;;;20.77;8.65;;;;;;;;;;1889411;76;21017;-60
2022/05/29 05:58:13;;;;;;;15.80;7.65;;;;;;;;;;1889398;76;21100;-60
2022/05/29 06:00:43;;;;;;;11.97;6.67;;;;;;;;;;1889309;76;21037;-60
2022/05/29 06:03:12;;;;;;;10.82;6.45;;;;;;;;;;1889348;76;21096;-60
2022/05/29 06:05:41;;;;;;;11.97;6.20;;;;;;;;;;1889270;76;21111;-60
2022/05/29 06:08:09;;;;;;;10.98;5.50;;;;;;;;;;1889363;76;21106;-60
2022/05/29 06:10:58;;;;;;;10.30;6.33;;;;;;;;;;1859150;77;21103;-60
2022/05/29 06:13:27;;;;;;;15.78;6.47;;;;;;;;;;1859249;77;21039;-60
2022/05/29 06:15:58;;;;;;;8.18;6.10;;;;;;;;;;1859222;77;21517;-60
2022/05/29 06:18:27;;;;;;;17.62;6.17;;;;;;;;;;1859087;77;21066;-60
2022/05/29 06:21:00;;;;;;;8.98;5.20;;;;;;;;;;1859132;77;21055;-60
2022/05/29 06:23:30;;;;;;;7.75;5.58;;;;;;;;;;1859014;77;21571;-60
2022/05/29 06:26:00;;;;;;;6.08;4.20;;;;;;;;;;1859117;77;21128;-60
2022/05/29 06:28:28;;;;;;;8.80;4.83;;;;;;;;;;1858902;77;21043;-60
2022/05/29 06:30:57;;;;;;;14.50;5.78;;;;;;;;;;1859257;76;21043;-60
2022/05/29 06:33:28;;;;;;;8.50;5.87;;;;;;;;;;1859034;76;21023;-60
2022/05/29 06:35:57;;;;;;;10.35;5.08;;;;;;;;;;1859057;77;21505;-60
2022/05/29 06:38:26;;;;;;;7.70;4.95;;;;;;;;;;1858731;77;21035;-60
2022/05/29 06:40:55;;;;;;;7.70;4.97;;;;;;;;;;1859115;77;21132;-60
2022/05/29 06:43:24;;;;;;;8.18;5.08;;;;;;;;;;1859079;76;21094;-60
2022/05/29 06:45:59;;;;;;;8.40;5.37;;;;;;;;;;1859162;77;21128;-60
2022/05/29 06:48:28;;;;;;;12.63;5.50;;;;;;;;;;1859080;77;21136;-60
2022/05/29 06:50:57;;;;;;;10.55;4.60;;;;;;;;;;1859155;77;21528;-59
2022/05/29 06:53:25;;;;;;;7.22;4.72;;;;;;;;;;1859115;77;21059;-60
2022/05/29 06:55:54;;;;;;;7.65;4.78;;;;;;;;;;1859265;77;21043;-60
2022/05/29 06:58:24;;;;;;;11.10;6.03;;;;;;;;;;1859235;77;21180;-60
2022/05/29 07:09:12;;;;;;;6.28;4.62;;;;;;;;;;1859082;77;21108;-59
2022/05/29 07:11:42;;;;;;;7.60;4.87;;;;;;;;;;1857131;77;21078;-60
2022/05/29 07:14:11;;;;;;;7.62;4.17;;;;;;;;;;1856391;76;21074;-60
2022/05/29 07:16:40;;;;;;;8.18;4.10;;;;;;;;;;1856511;77;21039;-60
2022/05/29 07:19:09;;;;;;;6.28;4.10;;;;;;;;;;1856460;77;21075;-60
2022/05/29 07:21:38;;;;;;;8.30;4.50;;;;;;;;;;1856446;77;21059;-60
2022/05/29 07:24:07;;;;;;;8.73;4.35;;;;;;;;;;1856237;77;21059;-60
2022/05/29 07:26:36;;;;;;;8.58;4.50;;;;;;;;;;1856260;77;21042;-60
2022/05/29 07:29:05;;;;;;;8.70;4.35;;;;;;;;;;1856494;77;21067;-60
2022/05/29 07:31:34;;;;;;;8.13;4.35;;;;;;;;;;1856483;77;21070;-60
2022/05/29 07:34:03;;;;;;;7.83;3.83;;;;;;;;;;1856340;77;21058;-60
2022/05/29 07:36:32;;;;;;;5.95;4.33;;;;;;;;;;1856628;77;21055;-60
2022/05/29 07:39:00;;;;;;;8.15;4.35;;;;;;;;;;1856529;77;21128;-59
2022/05/29 07:44:16;;;;;;;5.58;3.67;;;;;;;;;;1856246;77;21133;-60
2022/05/29 07:46:44;;;;;;;8.43;3.70;;;;;;;;;;1856347;76;21110;-59
2022/05/29 07:49:13;;;;;;;5.78;3.27;;;;;;;;;;1856269;76;21121;-60
2022/05/29 07:51:42;;;;;;;7.28;4.00;;;;;;;;;;1856211;77;21066;-60
2022/05/29 07:54:10;;;;;;;4.87;3.37;;;;;;;;;;1856218;77;21055;-60
2022/05/29 07:56:39;;;;;;;4.15;3.42;;;;;;;;;;1856334;77;21043;-59
2022/05/29 07:59:08;;;;;;;8.68;4.00;;;;;;;;;;1856281;77;21067;-59
2022/05/29 08:01:39;;;;;;;7.22;3.50;;;;;;;;;;1843709;75;21083;-60
2022/05/29 08:04:09;;;;;;;7.60;3.72;;;;;;;;;;1849997;76;21044;-60
2022/05/29 08:06:38;;;;;;;7.60;2.98;;;;;;;;;;1850110;77;21487;-60
2022/05/29 08:09:06;;;;;;;5.20;3.30;;;;;;;;;;1850118;77;21036;-60
2022/05/29 08:11:35;;;;;;;5.75;3.85;;;;;;;;;;1850147;77;21102;-60
2022/05/29 08:14:04;;;;;;;4.67;3.40;;;;;;;;;;1850030;77;21096;-59
2022/05/29 08:16:33;;;;;;;7.95;3.70;;;;;;;;;;1850357;76;21028;-59
2022/05/29 08:19:01;;;;;;;4.95;3.72;;;;;;;;;;1850202;77;21040;-59
2022/05/29 08:21:30;;;;;;;5.62;4.25;;;;;;;;;;1850170;77;21040;-59
2022/05/29 08:32:18;;;;;;;4.87;3.10;;;;;;;;;;1850054;76;21020;-59
2022/05/29 08:34:47;;;;;;;5.60;3.70;;;;;;;;;;1850082;76;21126;-59
2022/05/29 08:37:16;;;;;;;6.83;3.72;;;;;;;;;;1850049;76;21113;-60
2022/05/29 08:39:44;;;;;;;9.33;4.35;;;;;;;;;;1850152;76;21044;-59
2022/05/29 08:42:14;;;;;;;7.15;4.08;;;;;;;;;;1850192;76;21087;-60
2022/05/29 08:44:47;;;;;;;4.47;2.90;;;;;;;;;;1850130;76;21080;-60
2022/05/29 08:47:17;;;;;;;17.75;9.13;;;;;;;;;;1850143;76;21028;-59
2022/05/29 08:49:48;;;;;;;11.05;6.95;;;;;;;;;;1850299;76;21559;-59
2022/05/29 08:52:18;;;;;;;5.10;3.72;;;;;;;;;;1850454;77;21004;-59
2022/05/29 08:54:51;;;;;;;6.28;2.87;;;;;;;;;;1850386;77;21106;-59
2022/05/29 08:57:21;;;;;;;3.20;2.90;;;;;;;;;;1850253;76;21055;-59
2022/05/29 08:59:54;;;;;;;3.77;2.67;;;;;;;;;;1850301;77;21035;-60
2022/05/29 09:02:40;;;;;;;11.73;3.27;;;;;;;;;;1850401;76;21026;-59
2022/05/29 09:05:10;;;;;;;6.47;3.25;;;;;;;;;;1850068;76;21032;-59
2022/05/29 09:07:40;;;;;;;6.12;4.20;;;;;;;;;;1850471;76;21052;-59
2022/05/29 09:10:13;;;;;;;8.45;3.80;;;;;;;;;;1850290;76;21031;-59
2022/05/29 09:12:44;;;;;;;3.90;2.72;;;;;;;;;;1850211;77;21094;-60
2022/05/29 09:15:16;;;;;;;5.62;2.92;;;;;;;;;;1850374;77;21019;-60
2022/05/29 09:17:46;;;;;;;9.45;2.62;;;;;;;;;;1850250;76;21479;-60
2022/05/29 09:20:16;;;;;;;6.53;3.10;;;;;;;;;;1850287;76;21102;-60
2022/05/29 09:22:45;;;;;;;3.45;2.30;;;;;;;;;;1849693;76;21016;-61
2022/05/29 09:25:18;;;;;;;3.17;2.00;;;;;;;;;;1850127;77;21494;-61
2022/05/29 09:27:48;;;;;;;5.42;2.67;;;;;;;;;;1849344;77;21039;-61
2022/05/29 09:30:17;;;;;;;7.95;2.52;;;;;;;;;;1850445;76;21173;-61
2022/05/29 09:32:47;;;;;;;3.10;1.90;;;;;;;;;;1850519;76;21156;-61
2022/05/29 09:35:17;;;;;;;3.90;2.42;;;;;;;;;;1850103;76;21032;-61
2022/05/29 09:37:47;;;;;;;2.35;2.10;;;;;;;;;;1849208;76;21130;-61
2022/05/29 09:40:17;;;;;;;1.60;1.40;;;;;;;;;;1850107;76;21040;-61
2022/05/29 09:42:45;;;;;;;2.80;1.77;;;;;;;;;;1850356;76;21090;-61
2022/05/29 09:45:15;;;;;;;2.58;1.72;;;;;;;;;;1850275;76;21083;-61
2022/05/29 09:50:38;;;;;;;2.98;2.10;;;;;;;;;;1850292;76;21141;-59
2022/05/29 09:53:11;;;;;;;3.85;2.02;;;;;;;;;;1850286;77;21117;-59
2022/05/29 09:55:42;;;;;;;1.77;1.30;;;;;;;;;;1850322;76;21110;-60
2022/05/29 09:58:13;;;;;;;3.95;1.62;;;;;;;;;;1849656;76;21086;-59
2022/05/29 10:00:43;;;;;;;2.25;1.95;;;;;;;;;;1853719;76;21102;-59
2022/05/29 10:03:14;;;;;;;2.42;1.90;;;;;;;;;;1880015;75;21014;-59
2022/05/29 10:05:43;;;;;;;2.70;1.90;;;;;;;;;;1881920;75;20998;-59
2022/05/29 10:08:22;;;;;;;3.12;2.10;;;;;;;;;;1882019;75;21009;-61
2022/05/29 10:10:51;;;;;;;3.02;1.95;;;;;;;;;;1880365;76;21018;-60
2022/05/29 10:13:39;;;;;;;2.80;2.12;;;;;;;;;;1881923;76;21092;-59
2022/05/29 10:16:08;;;;;;;4.85;2.10;;;;;;;;;;1881931;75;21018;-59
2022/05/29 10:18:38;;;;;;;5.75;2.02;;;;;;;;;;1882047;75;21083;-59
2022/05/29 10:21:08;;;;;;;1.80;1.67;;;;;;;;;;1882039;76;20998;-59
2022/05/29 10:23:37;;;;;;;4.87;2.12;;;;;;;;;;1881961;76;21074;-60
2022/05/29 10:26:07;;;;;;;2.77;2.30;;;;;;;;;;1881979;76;21104;-60
2022/05/29 10:28:37;;;;;;;2.20;2.00;;;;;;;;;;1881793;76;21089;-59
2022/05/29 10:31:07;;;;;;;2.67;2.10;;;;;;;;;;1882017;75;21507;-59
2022/05/29 10:33:36;;;;;;;3.35;1.90;;;;;;;;;;1881855;76;21026;-59
2022/05/29 10:36:09;;;;;;;3.87;2.15;;;;;;;;;;1881882;76;21103;-59
2022/05/29 10:38:37;;;;;;;2.47;1.85;;;;;;;;;;1882040;76;21010;-59
2022/05/29 10:41:07;;;;;;;2.85;1.87;;;;;;;;;;1882088;76;21080;-60
2022/05/29 10:43:51;;;;;;;2.27;1.72;;;;;;;;;;1882038;76;21022;-59
2022/05/29 10:46:20;;;;;;;2.65;1.60;;;;;;;;;;1881991;76;21555;-59
2022/05/29 10:49:03;;;;;;;4.70;2.47;;;;;;;;;;1882039;76;21014;-59
2022/05/29 10:51:39;;;;;;;2.80;1.82;;;;;;;;;;1881784;76;21100;-59
2022/05/29 10:54:09;;;;;;;3.83;1.90;;;;;;;;;;1880946;76;21018;-59
2022/05/29 10:56:45;;;;;;;4.10;1.75;;;;;;;;;;1881750;75;21496;-59
2022/05/29 10:59:28;;;;;;;3.72;1.70;;;;;;;;;;1881948;76;21049;-59
2022/05/29 11:05:13;;;;;;;2.37;1.80;;;;;;;;;;1912848;75;21046;-61
2022/05/29 11:07:53;;;;;;;4.08;1.62;;;;;;;;;;1912761;75;21034;-61
2022/05/29 11:10:25;;;;;;;2.95;1.57;;;;;;;;;;1912639;75;20998;-61
2022/05/29 11:12:55;;;;;;;2.70;1.47;;;;;;;;;;1911832;74;21070;-61
2022/05/29 11:15:34;;;;;;;2.52;1.50;;;;;;;;;;1888253;75;21042;-59
2022/05/29 11:18:07;;;;;;;2.02;1.52;;;;;;;;;;1912760;75;21092;-59
2022/05/29 11:20:43;;;;;;;2.87;1.30;;;;;;;;;;1912878;75;21014;-60
2022/05/29 11:23:28;;;;;;;4.55;1.67;;;;;;;;;;1893120;75;21042;-59
2022/05/29 11:25:56;;;;;;;;;;;;;;;;;;1915628;75;20994;-59
2022/05/29 11:28:41;;;;;;;2.67;2.20;;;;;;;;;;1912741;75;20154;-59
2022/05/29 11:31:20;;;;;;;7.97;2.30;;;;;;;;;;1912817;75;21003;-59
2022/05/29 11:34:06;;;;;;;4.85;1.90;;;;;;;;;;1910771;74;21023;-60
2022/05/29 11:36:35;;;;;;;1.30;1.20;;;;;;;;;;1912706;75;21066;-60
2022/05/29 11:39:11;;;;;;;1.70;1.30;;;;;;;;;;1912762;75;21111;-60
2022/05/29 11:41:44;;;;;;;1.98;1.60;;;;;;;;;;1912977;75;21026;-60
2022/05/29 11:44:35;;;;;;;3.62;1.70;;;;;;;;;;1822399;78;21172;-60
2022/05/29 11:52:55;;;;;;;3.67;1.52;;;;;;;;;;1817298;78;21135;-59
2022/05/29 11:55:25;;;;;;;2.47;1.80;;;;;;;;;;1822421;79;21041;-59
2022/05/29 11:58:04;;;;;;;3.12;1.70;;;;;;;;;;1822540;77;21100;-60
2022/05/29 12:00:35;;;;;;;3.10;1.52;;;;;;;;;;1792442;79;21106;-60
2022/05/29 12:03:05;;;;;;;2.75;1.50;;;;;;;;;;1822543;79;21073;-61
2022/05/29 12:05:35;;;;;;;2.70;1.57;;;;;;;;;;1822520;79;21022;-61
2022/05/29 12:08:14;;;;;;;2.45;1.25;;;;;;;;;;1822477;79;21017;-61
2022/05/29 12:10:53;;;;;;;5.28;2.08;;;;;;;;;;1822328;77;21050;-60
2022/05/29 12:13:22;;;;;;;1.20;1.10;;;;;;;;;;1822482;79;21042;-60
2022/05/29 12:15:52;;;;;;;2.67;1.40;;;;;;;;;;1822344;79;21026;-61
2022/05/29 12:18:21;;;;;;;2.67;1.60;;;;;;;;;;1822414;79;21045;-61
2022/05/29 12:20:51;;;;;;;4.45;2.20;;;;;;;;;;1822561;79;21057;-61
2022/05/29 12:23:28;;;;;;;1.85;1.10;;;;;;;;;;1822435;79;21069;-61
2022/05/29 12:26:00;;;;;;;1.75;1.25;;;;;;;;;;1822352;79;21135;-61
2022/05/29 12:28:44;;;;;;;2.15;1.30;;;;;;;;;;1822602;79;21070;-61
2022/05/29 12:31:20;;;;;;;2.52;1.30;;;;;;;;;;1822376;79;21122;-61
2022/05/29 12:33:50;;;;;;;4.12;1.30;;;;;;;;;;1821596;78;21049;-62
2022/05/29 12:36:26;;;;;;;1.62;1.40;;;;;;;;;;1822616;79;21092;-61
2022/05/29 12:39:14;;;;;;;1.22;1.00;;;;;;;;;;1822057;79;21068;-62
2022/05/29 12:42:01;;;;;;;1.57;1.10;;;;;;;;;;1821652;79;21046;-61
2022/05/29 12:44:34;;;;;;;1.15;1.05;;;;;;;;;;1820562;77;21097;-61
2022/05/29 12:47:03;;;;;;;4.53;1.70;;;;;;;;;;1819551;78;21045;-61
2022/05/29 12:49:34;;;;;;;3.85;1.62;;;;;;;;;;1820275;79;21041;-61
2022/05/29 12:52:03;;;;;;;1.60;1.30;;;;;;;;;;1820171;78;21041;-61
2022/05/29 12:54:45;;;;;;;1.85;1.70;;;;;;;;;;1804099;77;21045;-61
2022/05/29 12:57:15;;;;;;;1.42;1.17;;;;;;;;;;1820294;79;21046;-61
2022/05/29 12:59:57;;;;;;;2.30;1.45;;;;;;;;;;1820180;79;21061;-61
2022/05/29 13:02:36;;;;;;;0.98;0.80;;;;;;;;;;1820320;78;21507;-61
2022/05/29 13:05:23;;;;;;;3.35;1.60;;;;;;;;;;1818054;79;21131;-61
2022/05/29 13:08:02;;;;;;;1.60;1.20;;;;;;;;;;1820076;79;21131;-61
2022/05/29 13:10:38;;;;;;;5.47;3.55;;;;;;;;;;1818682;79;21119;-61
2022/05/29 13:13:13;;;;;;;4.60;1.32;;;;;;;;;;1819596;79;21048;-61
2022/05/29 13:15:42;;;;;;;1.15;1.02;;;;;;;;;;1820221;78;21507;-61
2022/05/29 13:18:13;;;;;;;2.00;1.10;;;;;;;;;;1820137;78;21233;-61
2022/05/29 13:21:00;;;;;;;6.15;2.58;;;;;;;;;;1820163;79;21136;-61
2022/05/29 13:23:33;;;;;;;1.67;1.37;;;;;;;;;;1820141;79;21094;-61
2022/05/29 13:26:03;;;;;;;1.55;1.25;;;;;;;;;;1820100;78;21053;-61
2022/05/29 13:28:45;;;;;;;2.87;1.10;;;;;;;;;;1820232;78;21051;-61
2022/05/29 13:31:16;;;;;;;3.20;1.17;;;;;;;;;;1820165;78;21065;-61
2022/05/29 13:33:46;;;;;;;1.55;1.32;;;;;;;;;;1820247;78;21135;-61
2022/05/29 13:36:33;;;;;;;1.17;1.00;;;;;;;;;;1820173;79;21073;-61
2022/05/29 13:39:02;;;;;;;1.60;1.15;;;;;;;;;;1820082;78;21041;-61
2022/05/29 13:41:31;;;;;;;6.50;1.95;;;;;;;;;;1820097;78;21135;-61
2022/05/29 13:44:19;;;;;;;2.62;1.37;;;;;;;;;;1816354;78;21516;-61
2022/05/29 13:46:48;;;;;;;3.17;1.30;;;;;;;;;;1811002;79;21081;-61
2022/05/29 13:49:38;;;;;;;1.75;1.10;;;;;;;;;;1819440;78;21169;-61
2022/05/29 13:52:07;;;;;;;1.87;1.05;;;;;;;;;;1789445;80;21006;-61
2022/05/29 13:54:36;;;;;;;3.67;1.22;;;;;;;;;;1781773;80;21120;-61
2022/05/29 13:57:08;;;;;;;5.17;2.02;;;;;;;;;;1767380;80;21058;-61
2022/05/29 14:05:16;;;;;;;1.35;1.12;;;;;;;;;;1790131;79;21058;-60
2022/05/29 14:07:46;;;;;;;1.22;1.12;;;;;;;;;;1780787;80;21022;-59
2022/05/29 14:10:22;;;;;;;2.75;1.22;;;;;;;;;;1784354;79;20998;-60
2022/05/29 14:12:54;;;;;;;2.22;1.20;;;;;;;;;;1790266;79;21018;-60
2022/05/29 14:15:39;;;;;;;1.80;1.27;;;;;;;;;;1786122;80;21124;-60
2022/05/29 14:18:09;;;;;;;4.85;1.32;;;;;;;;;;1819602;78;21085;-61
2022/05/29 14:20:42;;;;;;;1.30;1.20;;;;;;;;;;1819693;77;21015;-61
2022/05/29 14:23:12;;;;;;;7.65;2.47;;;;;;;;;;1819647;79;21038;-61
2022/05/29 14:25:48;;;;;;;2.50;1.40;;;;;;;;;;1816898;77;21055;-61
2022/05/29 14:28:22;;;;;;;2.12;1.30;;;;;;;;;;1819717;79;21015;-61
2022/05/29 14:31:09;;;;;;;4.53;2.12;;;;;;;;;;1819101;79;21034;-60
2022/05/29 14:33:41;;;;;;;1.22;1.02;;;;;;;;;;1820147;79;21071;-60
2022/05/29 14:36:11;;;;;;;1.82;1.17;;;;;;;;;;1767069;80;21081;-59
2022/05/29 14:38:48;;;;;;;2.20;1.30;;;;;;;;;;1828224;78;21126;-59
2022/05/29 14:41:18;;;;;;;2.15;1.12;;;;;;;;;;1828331;78;21158;-59
2022/05/29 14:43:47;;;;;;;2.20;1.47;;;;;;;;;;1828042;77;21071;-59
2022/05/29 14:46:27;;;;;;;1.77;1.65;;;;;;;;;;1828133;77;21013;-59
2022/05/29 14:48:58;;;;;;;3.05;2.20;;;;;;;;;;1818445;77;21077;-59
2022/05/29 14:51:28;;;;;;;4.08;2.83;;;;;;;;;;1817068;78;21832;-59
2022/05/29 14:53:58;;;;;;;3.95;2.60;;;;;;;;;;1817004;78;21135;-59
2022/05/29 14:56:34;;;;;;;5.00;2.75;;;;;;;;;;1817178;78;21099;-61
2022/05/29 14:59:20;;;;;;;4.80;2.70;;;;;;;;;;1816917;78;21488;-61
2022/05/29 15:01:50;;;;;;;2.62;2.37;;;;;;;;;;1816946;79;21065;-61
2022/05/29 15:04:19;;;;;;;5.08;2.77;;;;;;;;;;1817028;78;21044;-60
2022/05/29 15:12:23;;;;;;;4.08;2.70;;;;;;;;;;1816979;78;21687;-62
2022/05/29 15:15:10;;;;;;;3.22;2.60;;;;;;;;;;1816965;79;21120;-62
2022/05/29 15:17:39;;;;;;;3.27;2.98;;;;;;;;;;1816891;78;21029;-62
2022/05/29 15:25:42;;;;;;;4.33;2.33;;;;;;;;;;1816946;78;21049;-62
2022/05/29 15:28:11;;;;;;;8.40;3.10;;;;;;;;;;1816936;78;21021;-62
2022/05/29 15:30:40;;;;;;;4.35;2.50;;;;;;;;;;1817050;78;21045;-62
2022/05/29 15:33:10;;;;;;;9.60;3.00;;;;;;;;;;1816926;78;21013;-62
2022/05/29 15:35:43;;;;;;;5.00;3.22;;;;;;;;;;1816944;78;21029;-62
2022/05/29 15:38:13;;;;;;;5.20;3.05;;;;;;;;;;1816923;78;21147;-62
2022/05/29 15:40:50;;;;;;;4.03;2.83;;;;;;;;;;1817308;79;21041;-62
2022/05/29 15:43:18;;;;;;;5.55;2.77;;;;;;;;;;1817423;77;21526;-62
2022/05/29 15:45:48;;;;;;;6.58;2.77;;;;;;;;;;1816916;78;21005;-62
2022/05/29 15:48:33;;;;;;;5.35;2.72;;;;;;;;;;1817252;77;21118;-62
2022/05/29 15:51:03;;;;;;;3.72;2.75;;;;;;;;;;1826267;77;21134;-62
2022/05/29 15:53:48;;;;;;;6.58;2.33;;;;;;;;;;1826435;78;21076;-62
2022/05/29 15:56:25;;;;;;;4.03;2.45;;;;;;;;;;1826169;77;21118;-62
2022/05/29 15:59:10;;;;;;;6.45;2.75;;;;;;;;;;1826369;78;21459;-62
2022/05/29 16:01:55;;;;;;;7.05;2.90;;;;;;;;;;1828884;78;21168;-62
2022/05/29 16:04:37;;;;;;;5.58;3.30;;;;;;;;;;1826734;78;21013;-62